Time;durP1;ratioP1;P1;durP2;ratioP2;P2;SDS_P1;SDS_P2;PMS_P1;PMS_P2;Temp;Humidity;BMP_temperature;BMP_pressure;BME280_temperature;BME280_humidity;BME280_pressure;Samples;Min_cycle;Max_cycle;Signal;HPM_P1;HPM_P2
2022/02/25 00:00:58;;;;;;;18.23;17.23;;;;;;;;;;5108508;28;20656;-96
2022/02/25 00:03:25;;;;;;;20.10;18.90;;;;;;;;;;5107316;28;20211;-96
2022/02/25 00:05:53;;;;;;;19.27;17.80;;;;;;;;;;5106727;28;20192;-96
2022/02/25 00:08:20;;;;;;;21.20;19.60;;;;;;;;;;5106460;28;20205;-96
2022/02/25 00:10:48;;;;;;;16.70;16.00;;;;;;;;;;5108317;28;20548;-96
2022/02/25 00:13:15;;;;;;;17.98;16.80;;;;;;;;;;5105841;28;20196;-96
2022/02/25 00:15:44;;;;;;;18.90;17.60;;;;;;;;;;5104460;28;20187;-96
2022/02/25 00:18:12;;;;;;;18.50;17.40;;;;;;;;;;5105997;28;20226;-96
2022/02/25 00:20:40;;;;;;;18.17;17.05;;;;;;;;;;5111987;28;20204;-96
2022/02/25 00:23:08;;;;;;;17.90;17.10;;;;;;;;;;5109684;28;20217;-96
2022/02/25 00:25:36;;;;;;;19.10;18.00;;;;;;;;;;5105875;28;20210;-96
2022/02/25 00:28:04;;;;;;;17.75;16.95;;;;;;;;;;5070820;28;20231;-96
2022/02/25 00:30:31;;;;;;;17.60;16.80;;;;;;;;;;5105388;28;20222;-96
2022/02/25 00:33:00;;;;;;;18.95;18.00;;;;;;;;;;5104966;28;20633;-96
2022/02/25 00:35:28;;;;;;;16.73;15.93;;;;;;;;;;5085182;28;20204;-96
2022/02/25 00:37:55;;;;;;;16.67;15.88;;;;;;;;;;5099395;28;20231;-96
2022/02/25 00:40:23;;;;;;;18.75;17.55;;;;;;;;;;5083834;28;20560;-96
2022/02/25 00:42:50;;;;;;;18.52;17.52;;;;;;;;;;5083881;28;20310;-96
2022/02/25 00:45:18;;;;;;;22.05;20.25;;;;;;;;;;5101732;28;20214;-96
2022/02/25 00:47:45;;;;;;;17.63;16.77;;;;;;;;;;5102328;28;20191;-96
2022/02/25 00:50:15;;;;;;;18.45;17.15;;;;;;;;;;5102778;28;20207;-96
2022/02/25 00:52:43;;;;;;;18.38;17.30;;;;;;;;;;5102022;28;20264;-96
2022/02/25 00:55:10;;;;;;;19.90;18.80;;;;;;;;;;5102410;28;20183;-96
2022/02/25 00:57:44;;;;;;;20.70;19.50;;;;;;;;;;5082858;28;20592;-96
2022/02/25 01:00:12;;;;;;;23.80;22.10;;;;;;;;;;5102726;28;20184;-96
2022/02/25 01:02:40;;;;;;;21.55;20.08;;;;;;;;;;5085968;28;20206;-96
2022/02/25 01:05:09;;;;;;;21.27;19.88;;;;;;;;;;5101650;28;20192;-96
2022/02/25 01:07:38;;;;;;;21.63;20.05;;;;;;;;;;5083021;28;20211;-96
2022/02/25 01:10:06;;;;;;;21.98;20.48;;;;;;;;;;5101064;28;20184;-96
2022/02/25 01:12:34;;;;;;;20.05;18.85;;;;;;;;;;5083665;28;20218;-96
2022/02/25 01:15:01;;;;;;;23.92;22.00;;;;;;;;;;5082492;28;20199;-96
2022/02/25 01:17:30;;;;;;;22.38;20.38;;;;;;;;;;5080429;28;20231;-96
2022/02/25 01:19:57;;;;;;;23.90;21.38;;;;;;;;;;5066329;28;20217;-96
2022/02/25 01:22:25;;;;;;;19.50;18.20;;;;;;;;;;5099689;28;20191;-96
2022/02/25 01:24:54;;;;;;;21.58;19.60;;;;;;;;;;5101094;28;20192;-96
2022/02/25 01:27:22;;;;;;;20.77;18.77;;;;;;;;;;5098369;28;20653;-96
2022/02/25 01:29:49;;;;;;;24.95;22.58;;;;;;;;;;5100503;28;20285;-96
2022/02/25 01:32:17;;;;;;;22.83;20.92;;;;;;;;;;5100231;28;20187;-96
2022/02/25 01:34:44;;;;;;;24.58;22.38;;;;;;;;;;5099027;28;20191;-96
2022/02/25 01:37:12;;;;;;;23.08;21.15;;;;;;;;;;5099141;28;20235;-96
2022/02/25 01:39:39;;;;;;;22.40;20.38;;;;;;;;;;5098186;28;20191;-96
2022/02/25 01:42:09;;;;;;;18.25;17.20;;;;;;;;;;5098908;28;20219;-96
2022/02/25 01:44:40;;;;;;;24.08;21.98;;;;;;;;;;5098406;28;20213;-96
2022/02/25 01:47:08;;;;;;;19.42;17.92;;;;;;;;;;5098805;28;20203;-96
2022/02/25 01:49:36;;;;;;;22.40;20.60;;;;;;;;;;5099416;28;20216;-96
2022/02/25 01:52:05;;;;;;;19.15;18.05;;;;;;;;;;5099009;28;20184;-96
2022/02/25 01:54:33;;;;;;;21.55;19.55;;;;;;;;;;5097410;28;20202;-96
2022/02/25 01:57:01;;;;;;;19.77;18.50;;;;;;;;;;5096483;28;20200;-96
2022/02/25 01:59:31;;;;;;;19.63;18.02;;;;;;;;;;5096163;28;20202;-96
2022/02/25 02:01:59;;;;;;;22.80;21.00;;;;;;;;;;5096941;28;20187;-96
2022/02/25 02:04:26;;;;;;;22.33;20.10;;;;;;;;;;5099736;28;20191;-96
2022/02/25 02:06:54;;;;;;;23.08;21.02;;;;;;;;;;5097845;28;20198;-96
2022/02/25 02:09:22;;;;;;;20.88;19.52;;;;;;;;;;5100649;28;20191;-96
2022/02/25 02:11:51;;;;;;;20.17;18.50;;;;;;;;;;5065727;28;20257;-96
2022/02/25 02:14:19;;;;;;;18.45;17.35;;;;;;;;;;5098718;28;20192;-96
2022/02/25 02:16:49;;;;;;;17.35;16.30;;;;;;;;;;5098178;28;20629;-96
2022/02/25 02:19:16;;;;;;;18.88;17.58;;;;;;;;;;5103260;28;20215;-96
2022/02/25 02:21:44;;;;;;;21.33;19.70;;;;;;;;;;5105405;28;20194;-96
2022/02/25 02:24:14;;;;;;;17.95;16.60;;;;;;;;;;5102945;28;20211;-96
2022/02/25 02:26:42;;;;;;;19.20;18.00;;;;;;;;;;5079496;28;20241;-96
2022/02/25 02:29:10;;;;;;;19.50;18.27;;;;;;;;;;5097856;28;20207;-96
2022/02/25 02:31:38;;;;;;;20.50;19.10;;;;;;;;;;5098278;28;20192;-96
2022/02/25 02:34:05;;;;;;;17.83;16.73;;;;;;;;;;5097818;28;20194;-96
2022/02/25 02:36:32;;;;;;;19.48;18.05;;;;;;;;;;5098209;28;20230;-96
2022/02/25 02:39:00;;;;;;;18.52;17.30;;;;;;;;;;5096143;28;20234;-96
2022/02/25 02:41:29;;;;;;;18.90;17.80;;;;;;;;;;5096263;28;20269;-96
2022/02/25 02:43:56;;;;;;;18.70;17.60;;;;;;;;;;5096575;28;20229;-96
2022/02/25 02:46:24;;;;;;;19.33;18.13;;;;;;;;;;5096715;28;20206;-96
2022/02/25 02:48:51;;;;;;;25.27;19.35;;;;;;;;;;5096641;28;20203;-96
2022/02/25 02:51:19;;;;;;;19.08;17.70;;;;;;;;;;5096153;28;20203;-96
2022/02/25 02:53:46;;;;;;;17.60;16.70;;;;;;;;;;5095383;28;20203;-96
2022/02/25 02:56:14;;;;;;;19.70;18.25;;;;;;;;;;5099360;28;20278;-96
2022/02/25 02:58:46;;;;;;;16.70;15.70;;;;;;;;;;5102183;28;20616;-96
2022/02/25 03:01:13;;;;;;;17.05;16.02;;;;;;;;;;5097849;28;20286;-96
2022/02/25 03:03:41;;;;;;;19.10;17.90;;;;;;;;;;5095708;28;20183;-96
2022/02/25 03:06:08;;;;;;;18.30;17.00;;;;;;;;;;5097614;28;20206;-96
2022/02/25 03:08:36;;;;;;;16.90;16.00;;;;;;;;;;5095688;28;20202;-96
2022/02/25 03:11:03;;;;;;;18.42;17.30;;;;;;;;;;5094543;28;20567;-96
2022/02/25 03:13:30;;;;;;;18.02;16.95;;;;;;;;;;5095116;28;20188;-96
2022/02/25 03:15:59;;;;;;;19.13;17.30;;;;;;;;;;5095770;28;20198;-96
2022/02/25 03:18:27;;;;;;;19.95;18.75;;;;;;;;;;5095164;28;20215;-96
2022/02/25 03:20:54;;;;;;;20.48;18.98;;;;;;;;;;5102876;28;20187;-96
2022/02/25 03:23:22;;;;;;;20.50;18.65;;;;;;;;;;5095692;28;20198;-96
2022/02/25 03:25:52;;;;;;;19.30;17.65;;;;;;;;;;5078825;28;20660;-96
2022/02/25 03:28:20;;;;;;;19.35;18.15;;;;;;;;;;5097283;28;20641;-96
2022/02/25 03:30:48;;;;;;;19.85;18.13;;;;;;;;;;5095679;28;20210;-96
2022/02/25 03:33:17;;;;;;;20.30;18.65;;;;;;;;;;5096503;28;20282;-96
2022/02/25 03:35:45;;;;;;;19.20;17.98;;;;;;;;;;5097558;28;20583;-96
2022/02/25 03:38:13;;;;;;;18.67;17.42;;;;;;;;;;5078129;28;20235;-96
2022/02/25 03:40:40;;;;;;;18.23;17.10;;;;;;;;;;5078807;28;20230;-96
2022/02/25 03:43:08;;;;;;;18.58;17.58;;;;;;;;;;5078368;28;20219;-96
2022/02/25 03:45:35;;;;;;;17.00;16.10;;;;;;;;;;5061548;28;20254;-96
2022/02/25 03:48:02;;;;;;;17.23;16.35;;;;;;;;;;5078578;28;20208;-96
2022/02/25 03:50:31;;;;;;;19.20;17.80;;;;;;;;;;5078158;28;20204;-96
2022/02/25 03:53:00;;;;;;;18.10;16.90;;;;;;;;;;5078578;28;20190;-96
2022/02/25 03:55:28;;;;;;;18.75;17.45;;;;;;;;;;5078834;28;20653;-96
2022/02/25 03:57:55;;;;;;;18.67;17.38;;;;;;;;;;5092563;28;20295;-96
2022/02/25 04:00:22;;;;;;;19.38;18.08;;;;;;;;;;5079021;28;20188;-95
2022/02/25 04:02:50;;;;;;;17.98;17.08;;;;;;;;;;5082171;28;20603;-95
2022/02/25 04:05:17;;;;;;;18.50;17.25;;;;;;;;;;5076117;28;20279;-94
2022/02/25 04:07:47;;;;;;;18.52;17.38;;;;;;;;;;5077236;28;20206;-95
2022/02/25 04:10:15;;;;;;;17.27;15.80;;;;;;;;;;5077432;28;20590;-96
2022/02/25 04:12:42;;;;;;;20.15;18.80;;;;;;;;;;5082301;28;20266;-96
2022/02/25 04:15:10;;;;;;;18.05;16.70;;;;;;;;;;5078258;28;20211;-95
2022/02/25 04:17:38;;;;;;;19.55;17.80;;;;;;;;;;5077386;28;20256;-95
2022/02/25 04:20:07;;;;;;;18.50;17.20;;;;;;;;;;5078754;28;20235;-95
2022/02/25 04:22:34;;;;;;;18.35;17.17;;;;;;;;;;5080414;28;20207;-96
2022/02/25 04:25:03;;;;;;;17.50;16.60;;;;;;;;;;5076912;28;20208;-95
2022/02/25 04:27:31;;;;;;;18.65;17.45;;;;;;;;;;5076939;28;20200;-96
2022/02/25 04:29:58;;;;;;;16.92;16.02;;;;;;;;;;5077341;28;20192;-96
2022/02/25 04:32:25;;;;;;;17.58;16.25;;;;;;;;;;5077339;28;20212;-94
2022/02/25 04:34:53;;;;;;;17.85;16.95;;;;;;;;;;5083436;28;20214;-96
2022/02/25 04:37:20;;;;;;;17.15;16.35;;;;;;;;;;5087589;28;20297;-96
2022/02/25 04:39:48;;;;;;;18.55;17.23;;;;;;;;;;5079579;28;20227;-95
2022/02/25 04:42:17;;;;;;;18.48;17.00;;;;;;;;;;5097046;28;20222;-96
2022/02/25 04:44:44;;;;;;;18.88;17.30;;;;;;;;;;5097074;28;20187;-95
2022/02/25 04:47:11;;;;;;;21.23;19.42;;;;;;;;;;5079025;28;20233;-95
2022/02/25 04:49:39;;;;;;;18.77;17.02;;;;;;;;;;5097125;28;20202;-96
2022/02/25 04:52:06;;;;;;;18.45;17.38;;;;;;;;;;5097039;28;20191;-96
2022/02/25 04:54:34;;;;;;;19.25;17.73;;;;;;;;;;5096192;28;20261;-96
2022/02/25 04:57:04;;;;;;;16.70;15.80;;;;;;;;;;5096321;28;20207;-96
2022/02/25 04:59:32;;;;;;;18.25;16.90;;;;;;;;;;5096359;28;20230;-96
2022/02/25 05:02:00;;;;;;;18.70;16.95;;;;;;;;;;5096970;28;20196;-96
2022/02/25 05:04:27;;;;;;;18.20;17.05;;;;;;;;;;5096740;28;20191;-96
2022/02/25 05:06:55;;;;;;;19.05;17.35;;;;;;;;;;5096423;28;20200;-96
2022/02/25 05:09:22;;;;;;;18.05;16.95;;;;;;;;;;5096670;28;20198;-96
2022/02/25 05:11:49;;;;;;;18.92;17.70;;;;;;;;;;5096215;28;20542;-94
2022/02/25 05:22:32;;;;;;;16.90;16.00;;;;;;;;;;5096203;28;20182;-94
2022/02/25 05:24:59;;;;;;;19.10;17.58;;;;;;;;;;5096491;28;20188;-94
2022/02/25 05:27:27;;;;;;;17.00;15.98;;;;;;;;;;5096196;28;20187;-95
2022/02/25 05:29:54;;;;;;;17.27;16.27;;;;;;;;;;5095881;28;20209;-94
2022/02/25 05:32:23;;;;;;;18.98;17.42;;;;;;;;;;5096099;28;20659;-94
2022/02/25 05:34:51;;;;;;;19.23;17.90;;;;;;;;;;5095398;28;20219;-94
2022/02/25 05:37:18;;;;;;;19.70;17.95;;;;;;;;;;5095754;28;20231;-94
2022/02/25 05:39:45;;;;;;;19.55;18.05;;;;;;;;;;5102624;28;20692;-94
2022/02/25 05:42:13;;;;;;;19.27;17.67;;;;;;;;;;5096032;28;20223;-94
2022/02/25 05:44:40;;;;;;;18.42;17.08;;;;;;;;;;5095412;28;20238;-95
2022/02/25 05:47:08;;;;;;;19.25;17.95;;;;;;;;;;5095539;28;20184;-94
2022/02/25 05:49:37;;;;;;;17.83;16.73;;;;;;;;;;5095604;28;20234;-94
2022/02/25 05:52:04;;;;;;;20.17;18.33;;;;;;;;;;5095618;28;20192;-94
2022/02/25 05:54:33;;;;;;;17.92;16.73;;;;;;;;;;5096239;28;20183;-94
2022/02/25 05:57:00;;;;;;;20.10;17.95;;;;;;;;;;5095575;28;20209;-94
2022/02/25 05:59:28;;;;;;;18.58;17.02;;;;;;;;;;5094267;28;20635;-94
2022/02/25 06:01:55;;;;;;;18.63;17.25;;;;;;;;;;5077804;28;20257;-94
2022/02/25 06:04:22;;;;;;;17.15;16.25;;;;;;;;;;5095343;28;20211;-94
2022/02/25 06:06:51;;;;;;;17.67;16.38;;;;;;;;;;5077807;28;20199;-94
2022/02/25 06:09:18;;;;;;;17.20;16.17;;;;;;;;;;5095692;28;20603;-94
2022/02/25 06:11:46;;;;;;;18.35;17.05;;;;;;;;;;5096348;28;20192;-94
2022/02/25 06:14:14;;;;;;;17.63;16.63;;;;;;;;;;5077573;28;20615;-94
2022/02/25 06:16:41;;;;;;;16.77;15.98;;;;;;;;;;5095381;28;20195;-94
2022/02/25 06:19:09;;;;;;;16.63;15.70;;;;;;;;;;5095302;28;20250;-95
2022/02/25 06:21:36;;;;;;;18.15;16.63;;;;;;;;;;5095690;28;20199;-96
2022/02/25 06:24:05;;;;;;;17.45;16.45;;;;;;;;;;5095255;28;20243;-94
2022/02/25 06:26:33;;;;;;;18.73;17.30;;;;;;;;;;5094874;28;20284;-94
2022/02/25 06:29:01;;;;;;;22.30;18.35;;;;;;;;;;5095465;28;20180;-95
2022/02/25 06:31:28;;;;;;;17.70;16.60;;;;;;;;;;5095848;28;20202;-94
2022/02/25 06:33:55;;;;;;;17.10;15.88;;;;;;;;;;5096022;28;20195;-94
2022/02/25 06:36:22;;;;;;;17.40;16.38;;;;;;;;;;5095794;28;20633;-95
2022/02/25 06:38:50;;;;;;;17.02;15.85;;;;;;;;;;5095675;28;20214;-94
2022/02/25 06:41:19;;;;;;;18.80;17.35;;;;;;;;;;5078618;28;20256;-95
2022/02/25 06:43:47;;;;;;;18.48;17.23;;;;;;;;;;5076835;28;20199;-95
2022/02/25 06:46:14;;;;;;;18.48;16.38;;;;;;;;;;5095559;28;20203;-94
2022/02/25 06:48:42;;;;;;;17.38;16.48;;;;;;;;;;5095876;28;20187;-95
2022/02/25 06:51:09;;;;;;;18.45;17.15;;;;;;;;;;5095916;28;20191;-96
2022/02/25 06:53:38;;;;;;;19.35;17.60;;;;;;;;;;5096364;28;20522;-94
2022/02/25 06:56:06;;;;;;;18.30;16.80;;;;;;;;;;5097771;28;20203;-95
2022/02/25 06:58:35;;;;;;;19.15;17.80;;;;;;;;;;5078059;28;20199;-96
2022/02/25 07:01:03;;;;;;;20.60;17.60;;;;;;;;;;5095551;28;20258;-96
2022/02/25 07:03:30;;;;;;;18.80;16.80;;;;;;;;;;5095116;28;20192;-96
2022/02/25 07:05:57;;;;;;;17.45;16.55;;;;;;;;;;5078023;28;20619;-96
2022/02/25 07:08:25;;;;;;;19.42;18.40;;;;;;;;;;5079244;28;20203;-96
2022/02/25 07:10:53;;;;;;;19.70;18.20;;;;;;;;;;5098371;28;20561;-96
2022/02/25 07:13:20;;;;;;;19.52;18.55;;;;;;;;;;5101833;28;20218;-96
2022/02/25 07:15:50;;;;;;;17.35;16.55;;;;;;;;;;5101560;28;20192;-96
2022/02/25 07:18:18;;;;;;;18.25;17.30;;;;;;;;;;5100461;28;20630;-96
2022/02/25 07:20:47;;;;;;;18.65;17.50;;;;;;;;;;5083958;28;20211;-96
2022/02/25 07:23:16;;;;;;;17.70;16.60;;;;;;;;;;5099689;28;20199;-96
2022/02/25 07:25:44;;;;;;;19.50;18.02;;;;;;;;;;5082070;28;20233;-96
2022/02/25 07:28:12;;;;;;;18.95;17.75;;;;;;;;;;5100374;28;20214;-96
2022/02/25 07:30:39;;;;;;;17.60;16.50;;;;;;;;;;5100832;28;20195;-96
2022/02/25 07:33:08;;;;;;;23.75;18.55;;;;;;;;;;5102938;28;20641;-96
2022/02/25 07:35:35;;;;;;;18.45;17.10;;;;;;;;;;5105078;28;20200;-96
2022/02/25 07:38:03;;;;;;;19.90;18.10;;;;;;;;;;5103297;28;20231;-96
2022/02/25 07:40:31;;;;;;;18.75;17.45;;;;;;;;;;5104181;28;20564;-96
2022/02/25 07:42:59;;;;;;;18.42;17.10;;;;;;;;;;5101048;28;20227;-96
2022/02/25 07:45:27;;;;;;;18.80;17.30;;;;;;;;;;5098514;28;20195;-96
2022/02/25 07:47:54;;;;;;;19.13;17.38;;;;;;;;;;5098112;28;20199;-96
2022/02/25 07:50:23;;;;;;;19.33;17.52;;;;;;;;;;5098104;28;20192;-96
2022/02/25 07:52:51;;;;;;;17.83;16.88;;;;;;;;;;5097883;28;20230;-96
2022/02/25 07:55:18;;;;;;;17.45;16.45;;;;;;;;;;5080282;28;20206;-96
2022/02/25 07:57:46;;;;;;;18.13;16.85;;;;;;;;;;5097099;28;20210;-96
2022/02/25 08:00:16;;;;;;;19.20;17.80;;;;;;;;;;5098744;28;20276;-96
2022/02/25 08:02:43;;;;;;;17.75;16.73;;;;;;;;;;5083568;28;20299;-96
2022/02/25 08:05:10;;;;;;;18.55;17.23;;;;;;;;;;5087827;28;20233;-96
2022/02/25 08:07:39;;;;;;;19.15;17.98;;;;;;;;;;5099545;28;20191;-96
2022/02/25 08:10:07;;;;;;;18.35;17.13;;;;;;;;;;5099764;28;20192;-96
2022/02/25 08:12:34;;;;;;;17.42;16.48;;;;;;;;;;5103375;28;20660;-96
2022/02/25 08:15:02;;;;;;;20.52;18.85;;;;;;;;;;5099880;28;20206;-96
2022/02/25 08:17:29;;;;;;;18.88;17.77;;;;;;;;;;5099066;28;20253;-96
2022/02/25 08:19:57;;;;;;;19.10;17.85;;;;;;;;;;5098794;28;20230;-96
2022/02/25 08:22:24;;;;;;;21.83;17.65;;;;;;;;;;5097658;28;20187;-96
2022/02/25 08:24:53;;;;;;;18.85;17.50;;;;;;;;;;5100475;28;20198;-96
2022/02/25 08:27:20;;;;;;;18.55;17.35;;;;;;;;;;5097986;28;20183;-96
2022/02/25 08:29:48;;;;;;;19.95;18.20;;;;;;;;;;5097889;28;20188;-86
2022/02/25 08:32:15;;;;;;;19.20;17.80;;;;;;;;;;5188053;22;20286;-96
2022/02/25 08:34:43;;;;;;;20.45;18.45;;;;;;;;;;5072411;28;20193;-96
2022/02/25 08:37:11;;;;;;;18.20;17.10;;;;;;;;;;5123281;22;20216;-96
2022/02/25 08:39:39;;;;;;;19.90;18.00;;;;;;;;;;5086011;28;20277;-96
2022/02/25 08:42:08;;;;;;;19.23;17.67;;;;;;;;;;5089983;28;20227;-96
2022/02/25 08:44:36;;;;;;;20.08;18.35;;;;;;;;;;5084718;28;20278;-95
2022/02/25 08:47:04;;;;;;;17.77;16.42;;;;;;;;;;5065877;28;20188;-95
2022/02/25 08:49:31;;;;;;;19.45;17.80;;;;;;;;;;5063556;28;20271;-96
2022/02/25 08:51:59;;;;;;;26.95;19.77;;;;;;;;;;5083883;28;20557;-96
2022/02/25 08:54:27;;;;;;;19.48;17.90;;;;;;;;;;5082669;28;20211;-96
2022/02/25 08:56:54;;;;;;;18.17;17.10;;;;;;;;;;5082018;28;20192;-96
2022/02/25 08:59:23;;;;;;;20.42;18.83;;;;;;;;;;5083487;28;20192;-96
2022/02/25 09:01:50;;;;;;;20.55;18.60;;;;;;;;;;5060263;28;20208;-96
2022/02/25 09:04:18;;;;;;;18.15;17.05;;;;;;;;;;5077244;28;20192;-96
2022/02/25 09:06:45;;;;;;;19.88;18.27;;;;;;;;;;5076331;28;20207;-94
2022/02/25 09:09:12;;;;;;;24.30;19.30;;;;;;;;;;5058639;28;20207;-96
2022/02/25 09:11:40;;;;;;;20.00;18.35;;;;;;;;;;5083343;28;20211;-91
2022/02/25 09:14:07;;;;;;;19.63;18.33;;;;;;;;;;5069709;28;20259;-96
2022/02/25 09:16:36;;;;;;;24.08;19.70;;;;;;;;;;5076816;28;20187;-96
2022/02/25 09:19:04;;;;;;;27.40;24.65;;;;;;;;;;5090366;28;20195;-95
2022/02/25 09:21:32;;;;;;;22.15;20.20;;;;;;;;;;5089270;28;20220;-96
2022/02/25 09:23:59;;;;;;;22.58;20.17;;;;;;;;;;5077845;28;20237;-96
2022/02/25 09:26:26;;;;;;;20.02;18.52;;;;;;;;;;5094041;28;20196;-96
2022/02/25 09:28:54;;;;;;;24.15;21.73;;;;;;;;;;5095287;28;20211;-96
2022/02/25 09:31:21;;;;;;;21.48;19.80;;;;;;;;;;5078621;28;20527;-96
2022/02/25 09:33:50;;;;;;;20.80;19.20;;;;;;;;;;5079022;28;20226;-96
2022/02/25 09:36:18;;;;;;;22.70;20.77;;;;;;;;;;5080086;28;20242;-96
2022/02/25 09:38:46;;;;;;;35.63;25.42;;;;;;;;;;5087999;28;20188;-96
2022/02/25 09:52:33;;;;;;;23.17;21.00;;;;;;;;;;5870298;22;20239;-92
2022/02/25 09:55:01;;;;;;;18.45;17.42;;;;;;;;;;4977093;28;20219;-88
2022/02/25 09:57:28;;;;;;;21.08;19.15;;;;;;;;;;4959135;28;20661;-91
2022/02/25 09:59:55;;;;;;;23.20;21.05;;;;;;;;;;4976670;28;20728;-91
2022/02/25 10:02:38;;;;;;;23.80;21.75;;;;;;;;;;4979367;28;20542;-91
2022/02/25 10:05:09;;;;;;;22.45;20.90;;;;;;;;;;4976248;28;20717;-92
2022/02/25 10:07:39;;;;;;;22.67;21.02;;;;;;;;;;4976127;28;20249;-96
2022/02/25 10:10:08;;;;;;;22.83;20.58;;;;;;;;;;4978785;28;20302;-91
2022/02/25 10:12:35;;;;;;;27.48;24.17;;;;;;;;;;4981751;28;20636;-89
2022/02/25 10:15:03;;;;;;;23.58;21.70;;;;;;;;;;4979059;28;20191;-89
2022/02/25 10:17:30;;;;;;;26.33;23.17;;;;;;;;;;4977376;28;20195;-87
2022/02/25 10:19:58;;;;;;;22.45;20.25;;;;;;;;;;4976265;28;20641;-90
2022/02/25 10:22:26;;;;;;;23.73;21.75;;;;;;;;;;4976110;28;20223;-88
2022/02/25 10:24:56;;;;;;;21.00;19.67;;;;;;;;;;4975761;28;20195;-89
2022/02/25 10:27:29;;;;;;;21.83;20.35;;;;;;;;;;4958836;28;20203;-94
2022/02/25 10:30:01;;;;;;;19.52;18.27;;;;;;;;;;4959232;28;20207;-89
2022/02/25 10:32:33;;;;;;;24.52;22.73;;;;;;;;;;4975882;28;20530;-88
2022/02/25 10:35:01;;;;;;;24.95;20.25;;;;;;;;;;4976105;28;20187;-91
2022/02/25 10:37:28;;;;;;;24.83;22.58;;;;;;;;;;4976479;28;20198;-92
2022/02/25 10:39:58;;;;;;;20.27;18.48;;;;;;;;;;4975941;28;20191;-91
2022/02/25 10:42:25;;;;;;;20.83;19.30;;;;;;;;;;4976940;28;20235;-88
2022/02/25 10:44:57;;;;;;;22.25;20.20;;;;;;;;;;4958540;28;20277;-93
2022/02/25 10:47:25;;;;;;;21.52;20.08;;;;;;;;;;4976016;28;20204;-92
2022/02/25 10:50:00;;;;;;;20.58;19.30;;;;;;;;;;4977107;28;20195;-94
2022/02/25 10:55:14;;;;;;;20.98;19.20;;;;;;;;;;5906393;23;20227;-93
2022/02/25 11:00:45;;;;;;;22.45;20.63;;;;;;;;;;5398137;22;20226;-90
2022/02/25 11:06:31;;;;;;;19.15;17.88;;;;;;;;;;5003661;23;20251;-91
2022/02/25 11:08:59;;;;;;;21.90;19.70;;;;;;;;;;4985082;28;20198;-96
2022/02/25 11:11:28;;;;;;;18.10;17.20;;;;;;;;;;4983346;28;20638;-94
2022/02/25 11:13:56;;;;;;;23.20;21.20;;;;;;;;;;4975792;28;20192;-89
2022/02/25 11:16:24;;;;;;;23.17;21.40;;;;;;;;;;4976363;28;20195;-93
2022/02/25 11:18:51;;;;;;;19.38;18.38;;;;;;;;;;4975336;28;20712;-92
2022/02/25 11:21:18;;;;;;;19.08;17.67;;;;;;;;;;4975312;28;20254;-93
2022/02/25 11:23:47;;;;;;;18.92;17.88;;;;;;;;;;4958088;28;20227;-92
2022/02/25 11:26:16;;;;;;;19.02;17.92;;;;;;;;;;4975899;28;20191;-92
2022/02/25 11:28:45;;;;;;;20.55;18.83;;;;;;;;;;4975668;28;20200;-93
2022/02/25 11:31:14;;;;;;;20.58;19.02;;;;;;;;;;4975793;28;20421;-93
2022/02/25 11:33:41;;;;;;;22.60;20.70;;;;;;;;;;4976187;28;20196;-93
2022/02/25 11:36:10;;;;;;;21.92;20.30;;;;;;;;;;4975675;28;20191;-93
2022/02/25 11:38:40;;;;;;;20.08;18.67;;;;;;;;;;4975916;28;20623;-92
2022/02/25 11:41:08;;;;;;;23.85;20.67;;;;;;;;;;4975171;28;20894;-93
2022/02/25 11:43:40;;;;;;;21.42;19.33;;;;;;;;;;4974603;28;20204;-93
2022/02/25 11:46:10;;;;;;;22.35;20.42;;;;;;;;;;4975789;28;20218;-95
2022/02/25 11:48:42;;;;;;;22.08;20.02;;;;;;;;;;4957990;28;20203;-91
2022/02/25 11:51:25;;;;;;;18.38;17.15;;;;;;;;;;4974851;28;20704;-94
2022/02/25 11:54:07;;;;;;;23.30;20.75;;;;;;;;;;4976865;28;20188;-95
2022/02/25 11:56:34;;;;;;;19.65;18.30;;;;;;;;;;4974878;28;20248;-96
2022/02/25 11:59:02;;;;;;;21.15;19.35;;;;;;;;;;4979099;28;20262;-95
2022/02/25 12:01:31;;;;;;;23.30;21.08;;;;;;;;;;4978043;28;20274;-88
2022/02/25 12:04:06;;;;;;;20.70;18.80;;;;;;;;;;4978101;28;20550;-87
2022/02/25 12:06:52;;;;;;;21.10;19.25;;;;;;;;;;4978245;28;20234;-88
2022/02/25 12:09:39;;;;;;;23.58;19.25;;;;;;;;;;4978702;28;20218;-88
2022/02/25 12:12:22;;;;;;;22.83;20.80;;;;;;;;;;4978700;28;20195;-88
2022/02/25 12:14:59;;;;;;;22.10;19.73;;;;;;;;;;4977650;28;20234;-89
2022/02/25 12:17:37;;;;;;;22.48;20.20;;;;;;;;;;4978344;28;20191;-89
2022/02/25 12:20:06;;;;;;;18.58;17.33;;;;;;;;;;4978017;28;20215;-90
2022/02/25 12:22:47;;;;;;;19.60;17.70;;;;;;;;;;4977757;28;20761;-90
2022/02/25 12:25:16;;;;;;;20.25;18.50;;;;;;;;;;4978089;28;20187;-90
2022/02/25 12:27:43;;;;;;;18.73;17.40;;;;;;;;;;4978241;28;20206;-91
2022/02/25 12:30:26;;;;;;;18.65;17.25;;;;;;;;;;4960779;28;20262;-90
2022/02/25 12:32:57;;;;;;;19.17;17.75;;;;;;;;;;4977982;28;20191;-91
2022/02/25 12:35:40;;;;;;;17.38;16.38;;;;;;;;;;4960654;28;20227;-91
2022/02/25 12:38:07;;;;;;;17.50;16.50;;;;;;;;;;4978615;28;20207;-92
2022/02/25 12:40:35;;;;;;;17.63;16.50;;;;;;;;;;4978568;28;20261;-92
2022/02/25 12:43:07;;;;;;;18.08;16.90;;;;;;;;;;4976254;28;20196;-91
2022/02/25 12:45:37;;;;;;;16.90;15.82;;;;;;;;;;4977616;28;20192;-90
2022/02/25 12:48:07;;;;;;;17.90;16.35;;;;;;;;;;4977504;28;20191;-89
2022/02/25 12:50:41;;;;;;;16.60;15.80;;;;;;;;;;4977845;28;20214;-90
2022/02/25 12:53:08;;;;;;;17.30;16.10;;;;;;;;;;4961202;28;20226;-89
2022/02/25 12:55:35;;;;;;;17.30;16.35;;;;;;;;;;4977320;28;20708;-88
2022/02/25 12:58:03;;;;;;;16.95;16.05;;;;;;;;;;4977364;28;20211;-88
2022/02/25 13:00:30;;;;;;;17.83;16.73;;;;;;;;;;4977314;28;20226;-88
2022/02/25 13:02:58;;;;;;;17.90;16.90;;;;;;;;;;4977503;28;20200;-88
2022/02/25 13:05:27;;;;;;;18.33;16.88;;;;;;;;;;4977042;28;20234;-89
2022/02/25 13:07:58;;;;;;;17.40;16.60;;;;;;;;;;4976892;28;20641;-88
2022/02/25 13:10:25;;;;;;;18.27;16.95;;;;;;;;;;4977053;28;20200;-87
2022/02/25 13:12:53;;;;;;;21.58;19.95;;;;;;;;;;4976850;28;20203;-88
2022/02/25 13:15:26;;;;;;;19.95;17.65;;;;;;;;;;4977514;28;20195;-88
2022/02/25 13:17:53;;;;;;;17.45;16.45;;;;;;;;;;4976849;28;20231;-89
2022/02/25 13:20:21;;;;;;;18.48;17.10;;;;;;;;;;4976704;28;20192;-88
2022/02/25 13:22:50;;;;;;;20.38;18.58;;;;;;;;;;4976868;28;20238;-86
2022/02/25 13:25:20;;;;;;;19.75;18.15;;;;;;;;;;4977216;28;20646;-89
2022/02/25 13:27:48;;;;;;;20.95;19.05;;;;;;;;;;4977145;28;20235;-88
2022/02/25 13:30:21;;;;;;;19.83;17.70;;;;;;;;;;4976614;28;20211;-88
2022/02/25 13:32:49;;;;;;;21.42;20.02;;;;;;;;;;4959655;28;20241;-88
2022/02/25 13:35:17;;;;;;;20.48;18.80;;;;;;;;;;4976870;28;20192;-87
2022/02/25 13:37:50;;;;;;;19.13;17.50;;;;;;;;;;4976837;28;20199;-86
2022/02/25 13:40:31;;;;;;;20.77;18.90;;;;;;;;;;4976629;28;20226;-87
2022/02/25 13:42:58;;;;;;;19.52;18.33;;;;;;;;;;4976728;28;20286;-89
2022/02/25 13:45:30;;;;;;;20.10;18.15;;;;;;;;;;4976685;28;20294;-89
2022/02/25 13:53:54;;;;;;;20.95;18.83;;;;;;;;;;4936263;28;20212;-90
2022/02/25 13:56:27;;;;;;;20.27;18.98;;;;;;;;;;4935745;29;20201;-92
2022/02/25 13:58:58;;;;;;;40.10;37.97;;;;;;;;;;4935794;29;20192;-94
2022/02/25 14:01:26;;;;;;;45.70;42.78;;;;;;;;;;4936280;29;20233;-93
2022/02/25 14:03:53;;;;;;;40.95;38.75;;;;;;;;;;4936079;29;20826;-91
2022/02/25 14:06:24;;;;;;;34.58;32.70;;;;;;;;;;4935869;29;20267;-84
2022/02/25 14:08:53;;;;;;;31.38;29.77;;;;;;;;;;4934992;29;20216;-83
2022/02/25 14:11:30;;;;;;;31.75;30.10;;;;;;;;;;4934507;29;20278;-82
2022/02/25 14:13:58;;;;;;;31.75;29.95;;;;;;;;;;4934626;29;20212;-84
2022/02/25 14:16:25;;;;;;;29.30;27.48;;;;;;;;;;4935060;29;20204;-82
2022/02/25 14:18:53;;;;;;;30.77;29.27;;;;;;;;;;4934255;29;20221;-83
2022/02/25 14:21:28;;;;;;;28.00;26.50;;;;;;;;;;4934640;29;20236;-83
2022/02/25 14:23:59;;;;;;;31.60;28.65;;;;;;;;;;4936737;29;20204;-96
2022/02/25 14:26:28;;;;;;;29.42;26.42;;;;;;;;;;4952582;28;20215;-84
2022/02/25 14:28:55;;;;;;;27.00;25.30;;;;;;;;;;4975579;28;20622;-84
2022/02/25 14:31:25;;;;;;;25.48;23.77;;;;;;;;;;4975204;28;20195;-85
2022/02/25 14:33:53;;;;;;;26.35;24.35;;;;;;;;;;4975409;28;20187;-84
2022/02/25 14:36:21;;;;;;;26.75;24.55;;;;;;;;;;4975313;28;20191;-84
2022/02/25 14:38:49;;;;;;;24.88;23.35;;;;;;;;;;4975265;28;20211;-85
2022/02/25 14:41:19;;;;;;;23.73;22.25;;;;;;;;;;4975300;28;20294;-85
2022/02/25 14:43:46;;;;;;;24.33;22.75;;;;;;;;;;4975278;28;20601;-84
2022/02/25 14:46:13;;;;;;;23.45;21.55;;;;;;;;;;4975143;28;20641;-85
2022/02/25 14:48:41;;;;;;;23.15;22.05;;;;;;;;;;4975357;28;20203;-84
2022/02/25 14:51:09;;;;;;;22.50;20.90;;;;;;;;;;4975376;28;20231;-85
2022/02/25 14:53:36;;;;;;;22.00;20.35;;;;;;;;;;4975412;28;20207;-86
2022/02/25 14:56:04;;;;;;;21.65;19.85;;;;;;;;;;4975237;28;20230;-84
2022/02/25 14:58:33;;;;;;;21.67;19.63;;;;;;;;;;4975339;28;20203;-85